Terminal Aerodrome Forecast
Issued by NWS

Home | Current Version | Previous Version | Text Only | Print | Product List | Glossary On
Versions: 1 2 3 4 5 6 7 8 9 10 11 12 13 14 15 16 17
000
FTUS43 KAPX 042320
TAFMBL
TAF
KMBL 042320Z 0500/0524 36012G18KT P6SM OVC035
     FM050200 36012G20KT P6SM -SHRA OVC025
     FM050500 01007KT P6SM BKN015
     FM051400 35007KT P6SM SCT040
     FM051900 32009KT P6SM FEW250
      AMD LTD TO CLD VIS AND WIND=

USA.gov is the U.S. government's official web portal to all federal, state and local government web resources and services.